Paul R Tregurtha — WYR4481 — position and weather

sailwx.info

Track history (hours):
 
Tides and Currents Weather Stations Pressure Air Temp Water Temp Dewpoint Dewpoint Depression Visibility Wind Speed Wind Dir Waves Ship Positions

Paul R Tregurtha

Owner: THE INTERLAKE STEAMSHIP COMPANY, Middleburg Heights, OH. More information available from US FCC via Universal Licensing System and Coast Guard Vessel Documentation Center.

Last reported at 2014-Oct-21 20:00 UTC. Time now 2014-Oct-23 04:27 UTC.
Position N 46°12' W 084°06'.

Length 308 m; draft 8.5 m.

Type: Cargo ship. MMSI: 366904940.

Wind from 350 at 9 knots

Barometer 1022.8 mb
Air temperature 7.1 ° C
Water temperature 10.2 ° C

Date/timePositionNaut miles runAvg speedWind from/ knotsBaromVisibWave heightAir tempDewpointWater temp
2014-Oct-21 20:00N 46°12' W 084°06'1312.7 350 / 91022.8 7.1 10.2
2014-Oct-21 19:00N 46°00' W 084°00'2211.0 010 / 81022.5 6.7 10.2
2014-Oct-21 17:00N 45°42' W 083°42'2512.3 010 / 151021.5 5.0 10.8
2014-Oct-21 15:00N 45°24' W 083°18'1312.7 040 / 211019.410.8 2.5 5.2 11.0
2014-Oct-21 14:00N 45°12' W 083°12'1312.7 060 / 261017.410.8 2.5 6.0 11.3
2014-Oct-21 13:00N 45°00' W 083°06'1312.7 020 / 251016.4 6.1 11.1
2014-Oct-21 12:00N 44°48' W 083°00'3310.9 1015.010.8 2.5 6.4 10.6
2014-Oct-21 09:00N 44°18' W 082°42'1212.0 010 / 191012.3 7.8 11.3
2014-Oct-21 08:00N 44°06' W 082°42'1312.8 1011.3 8.5 11.8
2014-Oct-21 07:00N 43°54' W 082°36'1312.8 020 / 201010.3 9.2 11.9
2014-Oct-21 06:00N 43°42' W 082°30'1212.0 300 / 171011.0 8.7 12.2
2014-Oct-21 05:00N 43°30' W 082°30'2412.2 310 / 171011.0 9.5 12.2
2014-Oct-21 03:00N 43°06' W 082°24'19 9.3 310 / 131011.0 11.1 13.2
2014-Oct-21 01:00N 42°48' W 082°30'6 6.0 300 / 41010.3 11.6 13.2
2014-Oct-21 00:00N 42°42' W 082°30'1312.8 240 / 31010.3 12.0 13.2
2014-Oct-20 23:00N 42°30' W 082°36'1110.7 320 / 11009.8 12.3 13.2
2014-Oct-20 22:00N 42°24' W 082°48'27 6.9 300 / 91009.8 13.4 13.4
2014-Oct-20 18:00N 42°00' W 083°06'7 7.5 190 / 131009.6 12.9 13.7
2014-Oct-20 17:00N 41°54' W 083°12'4 1.5 210 / 131010.0 12.9 13.4
2014-Oct-20 14:00N 41°54' W 083°18'0 0.0 020 / 11011.7 10.5 15.8
2014-Oct-20 12:00N 41°54' W 083°18'0 0.0 060 / 11012.0 9.5 15.7
2014-Oct-20 10:00N 41°54' W 083°18'0 0.0 240 / 11013.0 9.5 15.8
2014-Oct-20 09:00N 41°54' W 083°18'0 0.0 120 / 11013.4 9.8 15.8
2014-Oct-20 06:00N 41°54' W 083°18'9 8.9 230 / 141015.1 10.6 13.6
2014-Oct-20 05:00N 41°54' W 083°06'2412.0 220 / 181014.4 11.1 13.8
2014-Oct-20 03:00N 42°18' W 083°06'15 7.3 230 / 121015.5 9.8 13.8
2014-Oct-20 01:00N 42°24' W 082°48'1110.7 190 / 121016.2 10.2 13.6
2014-Oct-20 00:00N 42°30' W 082°36'19 9.3 210 / 111016.9 10.0 13.5
2014-Oct-19 22:00N 42°48' W 082°30'0 0.0 270 / 61018.4 10.1 16.3
2014-Oct-19 20:00N 42°48' W 082°30'0 0.0 270 / 51019.4 10.9 16.3
2014-Oct-19 19:00N 42°48' W 082°30'0 0.0 260 / 41020.1 11.5 16.1
2014-Oct-19 17:00N 42°48' W 082°30'0 0.0 290 / 51021.8 9.1 16.2
2014-Oct-19 16:00N 42°48' W 082°30'0 0.0 290 / 41022.1 6.6 16.1
2014-Oct-19 15:00N 42°48' W 082°30'0 0.0 020 / 21022.5 6.1 16.2
2014-Oct-19 14:00N 42°48' W 082°30'13 4.3 130 / 11022.5 4.2 16.1
2014-Oct-19 11:00N 43°00' W 082°24'2412.0 300 / 91021.1 2.3 13.6
2014-Oct-19 09:00N 43°24' W 082°24'2412.0 300 / 181020.1 4.9 13.0
2014-Oct-19 07:00N 43°48' W 082°24'2612.8 350 / 141019.8 6.4 12.5
2014-Oct-19 05:00N 44°12' W 082°36'6412.7 010 / 141019.4 5.9 11.1
2014-Oct-19 00:00N 45°12' W 083°06'1514.7 350 / 221018.4 6.2 11.3
2014-Oct-18 23:00N 45°24' W 083°18'4011.5 340 / 191017.7 7.4 12.0
2014-Oct-18 19:31N 45°56' W 083°53'4 8.2
2014-Oct-18 19:00N 46°00' W 083°54'7 7.3 340 / 211016.7 6.9 11.0
2014-Oct-18 18:00N 46°06' W 084°00'816.3 290 / 241016.4 6.3 10.6
2014-Oct-18 17:30N 46°12' W 084°08'3 5.7
2014-Oct-18 17:00N 46°12' W 084°12'6 6.0 330 / 121016.4 7.3 10.5
2014-Oct-18 16:00N 46°18' W 084°12'13 6.3 350 / 151016.7 6.2 10.8
2014-Oct-18 14:00N 46°30' W 084°18'8 4.1 340 / 71015.4 3.0 11.0
2014-Oct-18 12:00N 46°30' W 084°30'8 8.3 340 / 91013.2 3.5 10.9
2014-Oct-18 11:00N 46°30' W 084°42'2713.5 360 / 261012.2 4.5 11.1
2014-Oct-18 09:00N 46°54' W 085°00'1514.5 1011.2 4.3 9.5
2014-Oct-18 08:00N 47°06' W 085°12'7 7.3 010 / 241011.5 4.6 7.5
2014-Oct-18 07:00N 47°12' W 085°18'192 8.7 1010.8 4.7 8.2
2014-Oct-17 09:00N 47°30' W 090°00'1413.6 050 / 131000.0 7.6 8.7
2014-Oct-17 08:00N 47°24' W 090°18'2411.8 060 / 18999.7 7.9 8.5
2014-Oct-17 06:00N 47°12' W 090°48'1413.6 050 / 16999.3 8.2 11.0
2014-Oct-17 05:00N 47°06' W 091°06'2110.7 040 / 13999.7 7.8 10.2
2014-Oct-17 03:00N 47°00' W 091°36'1010.2 050 / 221000.0 7.0 11.2
2014-Oct-17 02:00N 46°54' W 091°48'17 8.6 060 / 201000.7 6.9 10.6
2014-Oct-17 00:00N 46°42' W 092°06'0 0.0 060 / 141002.4 7.9 10.8
2014-Oct-16 22:00N 46°42' W 092°06'0 0.0 070 / 191002.4 8.1 10.9
2014-Oct-16 20:00N 46°42' W 092°06'0 0.0 090 / 171003.7 8.2 10.8
2014-Oct-16 13:00N 46°42' W 092°06'6 6.0 090 / 101009.5 6.4 10.6
2014-Oct-16 12:00N 46°48' W 092°06'0 0.0 070 / 51010.2 6.7 10.4
2014-Oct-16 11:00N 46°48' W 092°06'0 0.0 050 / 81010.8 7.2 10.5
2014-Oct-16 08:00N 46°48' W 092°06'0 0.0 060 / 81011.9 8.1 10.6
2014-Oct-16 07:00N 46°48' W 092°06'0 0.0 050 / 61012.9 8.3 10.5
2014-Oct-16 06:00N 46°48' W 092°06'0 0.0 030 / 91012.5 8.0 10.5
2014-Oct-16 03:00N 46°48' W 092°06'0 0.0 030 / 91013.9 8.8 10.6
2014-Oct-16 02:00N 46°48' W 092°06'12 6.2 030 / 81014.2 9.5 10.6
2014-Oct-16 00:00N 46°48' W 091°48'1413.7 070 / 81014.2 10.4 11.0
2014-Oct-15 23:00N 46°54' W 091°30'1010.2 080 / 81014.9 9.9 10.8
2014-Oct-15 22:00N 47°00' W 091°18'1413.7 060 / 61014.910.8 0.510.0 10.6
2014-Oct-15 21:00N 47°06' W 091°00'9113.1 320 / 31014.9 9.4 10.2
2014-Oct-15 14:00N 47°24' W 088°48'1413.6 030 / 181016.6 7.7 8.6
2014-Oct-15 13:00N 47°30' W 088°30'1212.2 030 / 151016.6 7.7 9.5
2014-Oct-15 12:00N 47°30' W 088°12'2412.2 020 / 211015.9 7.6 8.6
2014-Oct-15 10:00N 47°30' W 087°36'1413.6 020 / 251014.2 8.0 8.7
2014-Oct-15 09:00N 47°24' W 087°18'9113.0 020 / 241013.2 7.2 7.1
2014-Oct-15 02:00N 46°54' W 085°12'2412.2 060 / 261009.1 10.0 9.8
2014-Oct-15 00:00N 46°36' W 084°48'1010.2 050 / 231007.8 10.4 11.5
2014-Oct-14 23:00N 46°30' W 084°36'8 8.3 040 / 81007.8 10.5 10.6
2014-Oct-14 22:00N 46°30' W 084°24'4 4.1 050 / 101007.5 10.8 11.1
2014-Oct-14 21:00N 46°30' W 084°18'6 6.0 040 / 71006.6 11.2 11.1
2014-Oct-14 20:00N 46°24' W 084°18'1010.2 050 / 141005.2 10.5 11.2
2014-Oct-14 19:00N 46°18' W 084°06'6 6.0 010 / 51005.2 11.1 11.2
2014-Oct-14 18:00N 46°12' W 084°06'7 7.3 140 / 31004.5 13.6 11.2
2014-Oct-14 17:00N 46°06' W 084°00'1912.9 140 / 131004.2 14.6 10.6
2014-Oct-14 15:33N 45°50' W 083°48'12611.9
2014-Oct-14 05:00N 44°06' W 082°06'1212.0 150 / 191009.9 17.1 13.5
2014-Oct-14 04:00N 43°54' W 082°06'1212.0 150 / 191011.0 17.4 14.9
2014-Oct-14 03:00N 43°42' W 082°06'1312.8 140 / 161012.0 16.3 14.8
2014-Oct-14 02:00N 43°30' W 082°12'1312.8 140 / 181012.0 16.5 14.3
2014-Oct-14 01:00N 43°18' W 082°18'1312.8 140 / 161012.3 16.7 14.5
2014-Oct-14 00:00N 43°06' W 082°24'1212.0 150 / 91013.0 18.0 14.8
2014-Oct-13 23:00N 42°54' W 082°24'7 7.4 160 / 71013.3 19.5 14.7
2014-Oct-13 22:00N 42°48' W 082°30'6 6.0 150 / 91013.7 19.0 14.6
2014-Oct-13 21:00N 42°42' W 082°30'7 7.4 160 / 111013.7 20.9 14.5
2014-Oct-13 20:00N 42°36' W 082°36'18 8.9 150 / 101013.8 18.7 14.5
2014-Oct-13 18:00N 42°24' W 082°54'26 8.5 200 / 91014.2 18.2 14.0
2014-Oct-13 15:00N 42°00' W 083°06'11 3.6 160 / 91015.7 14.9 13.9
2014-Oct-13 12:00N 41°54' W 083°18'0 0.0 200 / 11014.7 14.2 13.9
2014-Oct-13 11:00N 41°54' W 083°18'0 0.0 270 / 11015.1 14.3 13.9
2014-Oct-13 09:00N 41°54' W 083°18'0 0.0 200 / 31014.4 14.7 13.9
2014-Oct-13 08:00N 41°54' W 083°18'0 0.0 210 / 41015.1 14.9 14.0
2014-Oct-13 05:00N 41°54' W 083°18'0 0.0 290 / 11016.1 14.0 14.0
2014-Oct-13 04:00N 41°54' W 083°18'4 4.5 160 / 81016.4 14.6 13.9
2014-Oct-13 03:00N 41°54' W 083°12'33 8.2 120 / 131016.8 14.8 14.2
2014-Oct-12 23:00N 42°24' W 082°54'1110.7 100 / 121018.2 13.0 13.8
2014-Oct-12 22:00N 42°30' W 082°42'7 7.5 100 / 161018.6 13.3 14.5
2014-Oct-12 21:00N 42°36' W 082°36'7 7.4 050 / 101019.4 14.0 14.5
2014-Oct-12 20:00N 42°42' W 082°30'6 3.0 140 / 131019.8 14.0 14.6
2014-Oct-12 18:00N 42°48' W 082°30'0 0.0 170 / 41021.5 14.2 16.5
2014-Oct-12 17:00N 42°48' W 082°30'0 0.0 180 / 51022.5 14.6 16.3
2014-Oct-12 15:00N 42°48' W 082°30'0 0.0 130 / 41023.8 11.9 16.6
2014-Oct-12 14:00N 42°48' W 082°30'0 0.0 110 / 21024.5 9.9 16.6
2014-Oct-12 13:00N 42°48' W 082°30'0 0.0 090 / 21024.5 6.1 16.6
2014-Oct-12 11:00N 42°48' W 082°30'0 0.0 150 / 11024.2 5.5 16.5
2014-Oct-12 10:00N 42°48' W 082°30'6 3.0 050 / 21023.8 4.9 14.5
2014-Oct-12 08:00N 42°42' W 082°30'12 6.0 130 / 31023.8 4.8 14.6
2014-Oct-12 06:00N 42°54' W 082°30'7 7.4 110 / 41023.8 6.2 14.4
2014-Oct-12 05:00N 43°00' W 082°24'3612.0 170 / 61023.5 8.1 14.2
2014-Oct-12 02:00N 43°36' W 082°24'1212.0 160 / 81023.5 10.2 13.6
2014-Oct-12 01:00N 43°48' W 082°24'1312.8 130 / 91023.5 9.9 12.6
2014-Oct-12 00:00N 44°00' W 082°30'1312.8 100 / 61023.2 9.4 12.6
2014-Oct-11 23:00N 44°12' W 082°36'1312.7 080 / 81022.8 8.9 12.4
2014-Oct-11 22:00N 44°24' W 082°42'1312.7 120 / 41022.8 8.9 12.2
2014-Oct-11 21:00N 44°36' W 082°48'   220 / 31022.8 8.8 11.5
Track history (hours):
 
Tides and Currents Weather Stations Pressure Air Temp Water Temp Dewpoint Dewpoint Depression Visibility Wind Speed Wind Dir Waves Ship Positions

Paul R Tregurtha

Owner: THE INTERLAKE STEAMSHIP COMPANY, Middleburg Heights, OH. More information available from US FCC via Universal Licensing System and Coast Guard Vessel Documentation Center.

Last reported at 2014-Oct-21 20:00 UTC. Time now 2014-Oct-23 04:27 UTC.
Position N 46°12' W 084°06'.

Length 308 m; draft 8.5 m.

Type: Cargo ship. MMSI: 366904940.

Wind from 350 at 9 knots

Barometer 1022.8 mb
Air temperature 7.1 ° C
Water temperature 10.2 ° C

Date/timePositionNaut miles runAvg speedWind from/ knotsBaromVisibWave heightAir tempDewpointWater temp
2014-Oct-21 20:00N 46°12' W 084°06'1312.7 350 / 91022.8 7.1 10.2
2014-Oct-21 19:00N 46°00' W 084°00'2211.0 010 / 81022.5 6.7 10.2
2014-Oct-21 17:00N 45°42' W 083°42'2512.3 010 / 151021.5 5.0 10.8
2014-Oct-21 15:00N 45°24' W 083°18'1312.7 040 / 211019.410.8 2.5 5.2 11.0
2014-Oct-21 14:00N 45°12' W 083°12'1312.7 060 / 261017.410.8 2.5 6.0 11.3
2014-Oct-21 13:00N 45°00' W 083°06'1312.7 020 / 251016.4 6.1 11.1
2014-Oct-21 12:00N 44°48' W 083°00'3310.9 1015.010.8 2.5 6.4 10.6
2014-Oct-21 09:00N 44°18' W 082°42'1212.0 010 / 191012.3 7.8 11.3
2014-Oct-21 08:00N 44°06' W 082°42'1312.8 1011.3 8.5 11.8
2014-Oct-21 07:00N 43°54' W 082°36'1312.8 020 / 201010.3 9.2 11.9
2014-Oct-21 06:00N 43°42' W 082°30'1212.0 300 / 171011.0 8.7 12.2
2014-Oct-21 05:00N 43°30' W 082°30'2412.2 310 / 171011.0 9.5 12.2
2014-Oct-21 03:00N 43°06' W 082°24'19 9.3 310 / 131011.0 11.1 13.2
2014-Oct-21 01:00N 42°48' W 082°30'6 6.0 300 / 41010.3 11.6 13.2
2014-Oct-21 00:00N 42°42' W 082°30'1312.8 240 / 31010.3 12.0 13.2
2014-Oct-20 23:00N 42°30' W 082°36'1110.7 320 / 11009.8 12.3 13.2
2014-Oct-20 22:00N 42°24' W 082°48'27 6.9 300 / 91009.8 13.4 13.4
2014-Oct-20 18:00N 42°00' W 083°06'7 7.5 190 / 131009.6 12.9 13.7
2014-Oct-20 17:00N 41°54' W 083°12'4 1.5 210 / 131010.0 12.9 13.4
2014-Oct-20 14:00N 41°54' W 083°18'0 0.0 020 / 11011.7 10.5 15.8
2014-Oct-20 12:00N 41°54' W 083°18'0 0.0 060 / 11012.0 9.5 15.7
2014-Oct-20 10:00N 41°54' W 083°18'0 0.0 240 / 11013.0 9.5 15.8
2014-Oct-20 09:00N 41°54' W 083°18'0 0.0 120 / 11013.4 9.8 15.8
2014-Oct-20 06:00N 41°54' W 083°18'9 8.9 230 / 141015.1 10.6 13.6
2014-Oct-20 05:00N 41°54' W 083°06'2412.0 220 / 181014.4 11.1 13.8
2014-Oct-20 03:00N 42°18' W 083°06'15 7.3 230 / 121015.5 9.8 13.8
2014-Oct-20 01:00N 42°24' W 082°48'1110.7 190 / 121016.2 10.2 13.6
2014-Oct-20 00:00N 42°30' W 082°36'19 9.3 210 / 111016.9 10.0 13.5
2014-Oct-19 22:00N 42°48' W 082°30'0 0.0 270 / 61018.4 10.1 16.3
2014-Oct-19 20:00N 42°48' W 082°30'0 0.0 270 / 51019.4 10.9 16.3
2014-Oct-19 19:00N 42°48' W 082°30'0 0.0 260 / 41020.1 11.5 16.1
2014-Oct-19 17:00N 42°48' W 082°30'0 0.0 290 / 51021.8 9.1 16.2
2014-Oct-19 16:00N 42°48' W 082°30'0 0.0 290 / 41022.1 6.6 16.1
2014-Oct-19 15:00N 42°48' W 082°30'0 0.0 020 / 21022.5 6.1 16.2
2014-Oct-19 14:00N 42°48' W 082°30'13 4.3 130 / 11022.5 4.2 16.1
2014-Oct-19 11:00N 43°00' W 082°24'2412.0 300 / 91021.1 2.3 13.6
2014-Oct-19 09:00N 43°24' W 082°24'2412.0 300 / 181020.1 4.9 13.0
2014-Oct-19 07:00N 43°48' W 082°24'2612.8 350 / 141019.8 6.4 12.5
2014-Oct-19 05:00N 44°12' W 082°36'6412.7 010 / 141019.4 5.9 11.1
2014-Oct-19 00:00N 45°12' W 083°06'1514.7 350 / 221018.4 6.2 11.3
2014-Oct-18 23:00N 45°24' W 083°18'4011.5 340 / 191017.7 7.4 12.0
2014-Oct-18 19:31N 45°56' W 083°53'4 8.2
2014-Oct-18 19:00N 46°00' W 083°54'7 7.3 340 / 211016.7 6.9 11.0
2014-Oct-18 18:00N 46°06' W 084°00'816.3 290 / 241016.4 6.3 10.6
2014-Oct-18 17:30N 46°12' W 084°08'3 5.7
2014-Oct-18 17:00N 46°12' W 084°12'6 6.0 330 / 121016.4 7.3 10.5
2014-Oct-18 16:00N 46°18' W 084°12'13 6.3 350 / 151016.7 6.2 10.8
2014-Oct-18 14:00N 46°30' W 084°18'8 4.1 340 / 71015.4 3.0 11.0
2014-Oct-18 12:00N 46°30' W 084°30'8 8.3 340 / 91013.2 3.5 10.9
2014-Oct-18 11:00N 46°30' W 084°42'2713.5 360 / 261012.2 4.5 11.1
2014-Oct-18 09:00N 46°54' W 085°00'1514.5 1011.2 4.3 9.5
2014-Oct-18 08:00N 47°06' W 085°12'7 7.3 010 / 241011.5 4.6 7.5
2014-Oct-18 07:00N 47°12' W 085°18'192 8.7 1010.8 4.7 8.2
2014-Oct-17 09:00N 47°30' W 090°00'1413.6 050 / 131000.0 7.6 8.7
2014-Oct-17 08:00N 47°24' W 090°18'2411.8 060 / 18999.7 7.9 8.5
2014-Oct-17 06:00N 47°12' W 090°48'1413.6 050 / 16999.3 8.2 11.0
2014-Oct-17 05:00N 47°06' W 091°06'2110.7 040 / 13999.7 7.8 10.2
2014-Oct-17 03:00N 47°00' W 091°36'1010.2 050 / 221000.0 7.0 11.2
2014-Oct-17 02:00N 46°54' W 091°48'17 8.6 060 / 201000.7 6.9 10.6
2014-Oct-17 00:00N 46°42' W 092°06'0 0.0 060 / 141002.4 7.9 10.8
2014-Oct-16 22:00N 46°42' W 092°06'0 0.0 070 / 191002.4 8.1 10.9
2014-Oct-16 20:00N 46°42' W 092°06'0 0.0 090 / 171003.7 8.2 10.8
2014-Oct-16 13:00N 46°42' W 092°06'6 6.0 090 / 101009.5 6.4 10.6
2014-Oct-16 12:00N 46°48' W 092°06'0 0.0 070 / 51010.2 6.7 10.4
2014-Oct-16 11:00N 46°48' W 092°06'0 0.0 050 / 81010.8 7.2 10.5
2014-Oct-16 08:00N 46°48' W 092°06'0 0.0 060 / 81011.9 8.1 10.6
2014-Oct-16 07:00N 46°48' W 092°06'0 0.0 050 / 61012.9 8.3 10.5
2014-Oct-16 06:00N 46°48' W 092°06'0 0.0 030 / 91012.5 8.0 10.5
2014-Oct-16 03:00N 46°48' W 092°06'0 0.0 030 / 91013.9 8.8 10.6
2014-Oct-16 02:00N 46°48' W 092°06'12 6.2 030 / 81014.2 9.5 10.6
2014-Oct-16 00:00N 46°48' W 091°48'1413.7 070 / 81014.2 10.4 11.0
2014-Oct-15 23:00N 46°54' W 091°30'1010.2 080 / 81014.9 9.9 10.8
2014-Oct-15 22:00N 47°00' W 091°18'1413.7 060 / 61014.910.8 0.510.0 10.6
2014-Oct-15 21:00N 47°06' W 091°00'9113.1 320 / 31014.9 9.4 10.2
2014-Oct-15 14:00N 47°24' W 088°48'1413.6 030 / 181016.6 7.7 8.6
2014-Oct-15 13:00N 47°30' W 088°30'1212.2 030 / 151016.6 7.7 9.5
2014-Oct-15 12:00N 47°30' W 088°12'2412.2 020 / 211015.9 7.6 8.6
2014-Oct-15 10:00N 47°30' W 087°36'1413.6 020 / 251014.2 8.0 8.7
2014-Oct-15 09:00N 47°24' W 087°18'9113.0 020 / 241013.2 7.2 7.1
2014-Oct-15 02:00N 46°54' W 085°12'2412.2 060 / 261009.1 10.0 9.8
2014-Oct-15 00:00N 46°36' W 084°48'1010.2 050 / 231007.8 10.4 11.5
2014-Oct-14 23:00N 46°30' W 084°36'8 8.3 040 / 81007.8 10.5 10.6
2014-Oct-14 22:00N 46°30' W 084°24'4 4.1 050 / 101007.5 10.8 11.1
2014-Oct-14 21:00N 46°30' W 084°18'6 6.0 040 / 71006.6 11.2 11.1
2014-Oct-14 20:00N 46°24' W 084°18'1010.2 050 / 141005.2 10.5 11.2
2014-Oct-14 19:00N 46°18' W 084°06'6 6.0 010 / 51005.2 11.1 11.2
2014-Oct-14 18:00N 46°12' W 084°06'7 7.3 140 / 31004.5 13.6 11.2
2014-Oct-14 17:00N 46°06' W 084°00'1912.9 140 / 131004.2 14.6 10.6
2014-Oct-14 15:33N 45°50' W 083°48'12611.9
2014-Oct-14 05:00N 44°06' W 082°06'1212.0 150 / 191009.9 17.1 13.5
2014-Oct-14 04:00N 43°54' W 082°06'1212.0 150 / 191011.0 17.4 14.9
2014-Oct-14 03:00N 43°42' W 082°06'1312.8 140 / 161012.0 16.3 14.8
2014-Oct-14 02:00N 43°30' W 082°12'1312.8 140 / 181012.0 16.5 14.3
2014-Oct-14 01:00N 43°18' W 082°18'1312.8 140 / 161012.3 16.7 14.5
2014-Oct-14 00:00N 43°06' W 082°24'1212.0 150 / 91013.0 18.0 14.8
2014-Oct-13 23:00N 42°54' W 082°24'7 7.4 160 / 71013.3 19.5 14.7
2014-Oct-13 22:00N 42°48' W 082°30'6 6.0 150 / 91013.7 19.0 14.6
2014-Oct-13 21:00N 42°42' W 082°30'7 7.4 160 / 111013.7 20.9 14.5
2014-Oct-13 20:00N 42°36' W 082°36'18 8.9 150 / 101013.8 18.7 14.5
2014-Oct-13 18:00N 42°24' W 082°54'26 8.5 200 / 91014.2 18.2 14.0
2014-Oct-13 15:00N 42°00' W 083°06'11 3.6 160 / 91015.7 14.9 13.9
2014-Oct-13 12:00N 41°54' W 083°18'0 0.0 200 / 11014.7 14.2 13.9
2014-Oct-13 11:00N 41°54' W 083°18'0 0.0 270 / 11015.1 14.3 13.9
2014-Oct-13 09:00N 41°54' W 083°18'0 0.0 200 / 31014.4 14.7 13.9
2014-Oct-13 08:00N 41°54' W 083°18'0 0.0 210 / 41015.1 14.9 14.0
2014-Oct-13 05:00N 41°54' W 083°18'0 0.0 290 / 11016.1 14.0 14.0
2014-Oct-13 04:00N 41°54' W 083°18'4 4.5 160 / 81016.4 14.6 13.9
2014-Oct-13 03:00N 41°54' W 083°12'33 8.2 120 / 131016.8 14.8 14.2
2014-Oct-12 23:00N 42°24' W 082°54'1110.7 100 / 121018.2 13.0 13.8
2014-Oct-12 22:00N 42°30' W 082°42'7 7.5 100 / 161018.6 13.3 14.5
2014-Oct-12 21:00N 42°36' W 082°36'7 7.4 050 / 101019.4 14.0 14.5
2014-Oct-12 20:00N 42°42' W 082°30'6 3.0 140 / 131019.8 14.0 14.6
2014-Oct-12 18:00N 42°48' W 082°30'0 0.0 170 / 41021.5 14.2 16.5
2014-Oct-12 17:00N 42°48' W 082°30'0 0.0 180 / 51022.5 14.6 16.3
2014-Oct-12 15:00N 42°48' W 082°30'0 0.0 130 / 41023.8 11.9 16.6
2014-Oct-12 14:00N 42°48' W 082°30'0 0.0 110 / 21024.5 9.9 16.6
2014-Oct-12 13:00N 42°48' W 082°30'0 0.0 090 / 21024.5 6.1 16.6
2014-Oct-12 11:00N 42°48' W 082°30'0 0.0 150 / 11024.2 5.5 16.5
2014-Oct-12 10:00N 42°48' W 082°30'6 3.0 050 / 21023.8 4.9 14.5
2014-Oct-12 08:00N 42°42' W 082°30'12 6.0 130 / 31023.8 4.8 14.6
2014-Oct-12 06:00N 42°54' W 082°30'7 7.4 110 / 41023.8 6.2 14.4
2014-Oct-12 05:00N 43°00' W 082°24'3612.0 170 / 61023.5 8.1 14.2
2014-Oct-12 02:00N 43°36' W 082°24'1212.0 160 / 81023.5 10.2 13.6
2014-Oct-12 01:00N 43°48' W 082°24'1312.8 130 / 91023.5 9.9 12.6
2014-Oct-12 00:00N 44°00' W 082°30'1312.8 100 / 61023.2 9.4 12.6
2014-Oct-11 23:00N 44°12' W 082°36'1312.7 080 / 81022.8 8.9 12.4
2014-Oct-11 22:00N 44°24' W 082°42'1312.7 120 / 41022.8 8.9 12.2
2014-Oct-11 21:00N 44°36' W 082°48'   220 / 31022.8 8.8 11.5

Dump ship's entire track history